createdAt,value
2022-12-23T00:00:46.085Z,98172.50
2022-12-23T00:03:29.696Z,98174.65
2022-12-23T00:06:00.995Z,98171.13
2022-12-23T00:08:29.198Z,98175.73
2022-12-23T00:11:00.651Z,98178.20
2022-12-23T00:13:47.461Z,98174.48
2022-12-23T00:16:16.269Z,98173.41
2022-12-23T00:18:46.781Z,98172.18
2022-12-23T00:21:20.418Z,98166.42
2022-12-23T00:23:52.489Z,98173.76
2022-12-23T00:26:28.498Z,98173.97
2022-12-23T00:29:00.975Z,98172.41
2022-12-23T00:31:29.187Z,98172.75
2022-12-23T00:33:58.569Z,98180.46
2022-12-23T00:36:32.463Z,98177.88
2022-12-23T00:39:19.531Z,98180.35
2022-12-23T00:42:06.179Z,98183.56
2022-12-23T00:44:39.036Z,98186.91
2022-12-23T00:47:07.020Z,98190.09
2022-12-23T00:49:44.458Z,98189.29
2022-12-23T00:52:17.024Z,98197.55
2022-12-23T00:54:45.033Z,98187.60
2022-12-23T00:57:17.446Z,98191.89
2022-12-23T00:59:45.605Z,98187.08
2022-12-23T01:02:32.434Z,98190.89
2022-12-23T01:05:21.216Z,98179.63
2022-12-23T01:07:49.375Z,98179.40
2022-12-23T01:10:19.950Z,98179.14
2022-12-23T01:12:47.895Z,98180.46
2022-12-23T01:15:19.696Z,98186.19
2022-12-23T01:17:47.862Z,98188.42
2022-12-23T01:20:15.826Z,98187.11
2022-12-23T01:22:44.098Z,98189.86
2022-12-23T01:25:12.312Z,98192.64
2022-12-23T01:27:42.224Z,98186.30
2022-12-23T01:30:14.452Z,98194.00
2022-12-23T01:32:42.659Z,98194.01
2022-12-23T01:35:13.598Z,98194.02
2022-12-23T01:37:41.923Z,98194.03
2022-12-23T01:40:13.024Z,98195.02
2022-12-23T01:42:44.192Z,98192.46
2022-12-23T01:45:22.258Z,98187.52
2022-12-23T01:47:54.575Z,98194.06
2022-12-23T01:50:34.500Z,98192.63
2022-12-23T01:53:25.485Z,98189.75
2022-12-23T01:56:02.178Z,98186.50
2022-12-23T01:58:56.545Z,98187.35
2022-12-23T02:01:45.953Z,98188.30
2022-12-23T02:04:23.310Z,98189.55
2022-12-23T02:07:15.088Z,98192.48
2022-12-23T02:09:43.293Z,98196.54
2022-12-23T02:12:33.741Z,98196.94
2022-12-23T02:15:47.861Z,98199.80
2022-12-23T02:18:49.894Z,98197.90
2022-12-23T02:21:26.723Z,98199.56
2022-12-23T02:23:58.187Z,98199.00
2022-12-23T02:26:44.406Z,98200.99
2022-12-23T02:29:15.332Z,98200.29
2022-12-23T02:32:03.739Z,98204.30
2022-12-23T02:34:49.489Z,98203.95
2022-12-23T02:37:36.919Z,98212.27
2022-12-23T02:40:23.229Z,98214.29
2022-12-23T02:43:02.532Z,98214.92
2022-12-23T02:45:38.698Z,98215.81
2022-12-23T02:48:23.764Z,98215.60
2022-12-23T02:50:54.797Z,98211.56
2022-12-23T02:53:35.710Z,98209.45
2022-12-23T02:56:09.575Z,98206.48
2022-12-23T02:58:48.068Z,98204.71
2022-12-23T03:01:18.139Z,98199.06
2022-12-23T03:03:52.067Z,98193.40
2022-12-23T03:06:34.168Z,98196.21
2022-12-23T03:09:02.315Z,98197.27
2022-12-23T03:11:47.487Z,98200.57
2022-12-23T03:14:47.655Z,98202.48
2022-12-23T03:17:27.676Z,98207.88
2022-12-23T03:20:18.103Z,98203.26
2022-12-23T03:22:49.970Z,98198.47
2022-12-23T03:25:36.267Z,98196.10
2022-12-23T03:28:32.358Z,98196.68
2022-12-23T03:31:06.219Z,98200.98
2022-12-23T03:33:41.039Z,98198.70
2022-12-23T03:36:47.113Z,98198.99
2022-12-23T03:39:25.646Z,98196.58
2022-12-23T03:42:06.699Z,98191.62
2022-12-23T03:45:10.815Z,98197.02
2022-12-23T03:47:59.307Z,98197.51
2022-12-23T03:50:32.703Z,98209.23
2022-12-23T03:53:30.277Z,98204.31
2022-12-23T03:56:16.758Z,98198.40
2022-12-23T03:58:57.086Z,98201.11
2022-12-23T04:01:27.842Z,98202.91
2022-12-23T04:04:25.686Z,98198.80
2022-12-23T04:07:11.011Z,98202.99
2022-12-23T04:09:44.279Z,98206.48
2022-12-23T04:12:16.424Z,98208.78
2022-12-23T04:14:50.977Z,98211.84
2022-12-23T04:17:23.835Z,98216.89
2022-12-23T04:19:57.168Z,98219.98
2022-12-23T04:22:25.186Z,98221.20
2022-12-23T04:24:53.210Z,98227.30
2022-12-23T04:27:21.366Z,98230.02
2022-12-23T04:29:49.276Z,98233.96
2022-12-23T04:32:17.265Z,98228.23
2022-12-23T04:34:45.402Z,98231.29
2022-12-23T04:37:13.607Z,98221.04
2022-12-23T04:39:41.553Z,98221.60
2022-12-23T04:42:09.539Z,98222.80
2022-12-23T04:44:37.566Z,98224.05
2022-12-23T04:47:05.576Z,98225.98
2022-12-23T04:49:36.243Z,98231.89
2022-12-23T04:52:06.190Z,98233.92
2022-12-23T04:54:45.531Z,98236.34
2022-12-23T04:57:18.922Z,98239.64
2022-12-23T04:59:47.393Z,98237.90
2022-12-23T05:02:15.885Z,98240.77
2022-12-23T05:04:48.412Z,98239.09
2022-12-23T05:07:16.607Z,98234.73
2022-12-23T05:09:44.734Z,98239.23
2022-12-23T05:12:16.922Z,98238.45
2022-12-23T05:14:45.147Z,98238.40
2022-12-23T05:17:13.096Z,98240.23
2022-12-23T05:19:41.279Z,98241.23
2022-12-23T05:22:09.431Z,98241.79
2022-12-23T05:24:37.585Z,98238.86
2022-12-23T05:27:08.840Z,98240.11
2022-12-23T05:29:37.044Z,98242.52
2022-12-23T05:32:08.191Z,98235.67
2022-12-23T05:34:36.359Z,98240.09
2022-12-23T05:37:04.375Z,98243.46
2022-12-23T05:39:32.553Z,98239.75
2022-12-23T05:42:00.477Z,98235.84
2022-12-23T05:44:28.644Z,98237.02
2022-12-23T05:46:56.694Z,98242.30
2022-12-23T05:49:27.080Z,98242.70
2022-12-23T05:51:55.256Z,98246.21
2022-12-23T05:54:23.196Z,98245.48
2022-12-23T05:56:51.423Z,98242.35
2022-12-23T05:59:21.658Z,98247.02
2022-12-23T06:01:49.805Z,98244.17
2022-12-23T06:04:18.721Z,98244.89
2022-12-23T06:06:51.069Z,98248.20
2022-12-23T06:09:19.025Z,98253.84
2022-12-23T06:11:51.802Z,98256.59
2022-12-23T06:14:25.163Z,98257.25
2022-12-23T06:16:56.869Z,98253.95
2022-12-23T06:19:27.922Z,98250.36
2022-12-23T06:21:56.025Z,98249.41
2022-12-23T06:24:24.256Z,98249.73
2022-12-23T06:26:56.988Z,98245.70
2022-12-23T06:29:30.826Z,98257.67
2022-12-23T06:31:58.819Z,98255.98
2022-12-23T06:34:35.836Z,98256.30
2022-12-23T06:37:04.139Z,98253.89
2022-12-23T06:39:32.366Z,98250.45
2022-12-23T06:42:00.523Z,98240.90
2022-12-23T06:44:28.488Z,98238.11
2022-12-23T06:46:56.645Z,98242.38
2022-12-23T06:49:24.828Z,98244.88
2022-12-23T06:51:53.030Z,98241.45
2022-12-23T06:54:20.994Z,98245.42
2022-12-23T06:56:48.952Z,98245.88
2022-12-23T06:59:16.928Z,98249.77
2022-12-23T07:01:45.147Z,98254.20
2022-12-23T07:04:17.634Z,98258.41
2022-12-23T07:06:45.852Z,98261.68
2022-12-23T07:09:14.024Z,98262.84
2022-12-23T07:11:42.233Z,98261.27
2022-12-23T07:14:13.259Z,98262.38
2022-12-23T07:16:41.523Z,98257.86
2022-12-23T07:19:14.033Z,98255.48
2022-12-23T07:21:42.222Z,98258.09
2022-12-23T07:24:12.859Z,98262.20
2022-12-23T07:26:45.743Z,98270.46
2022-12-23T07:29:13.928Z,98275.89
2022-12-23T07:31:45.371Z,98274.70
2022-12-23T07:34:17.119Z,98277.19
2022-12-23T07:36:46.043Z,98279.80
2022-12-23T07:39:13.999Z,98283.38
2022-12-23T07:41:42.393Z,98282.05
2022-12-23T07:44:10.385Z,98280.53
2022-12-23T07:46:39.321Z,98273.28
2022-12-23T07:49:12.629Z,98261.30
2022-12-23T07:51:40.889Z,98263.60
2022-12-23T07:54:09.068Z,98264.20
2022-12-23T07:56:36.981Z,98263.56
2022-12-23T07:59:05.126Z,98266.32
2022-12-23T08:01:36.333Z,98268.98
2022-12-23T08:04:09.239Z,98271.90
2022-12-23T08:06:37.831Z,98271.09
2022-12-23T08:09:14.175Z,98280.54
2022-12-23T08:11:42.434Z,98285.73
2022-12-23T08:14:13.453Z,98292.43
2022-12-23T08:16:43.945Z,98291.92
2022-12-23T08:19:18.068Z,98288.34
2022-12-23T08:21:46.021Z,98290.45
2022-12-23T08:24:17.247Z,98290.14
2022-12-23T08:26:45.531Z,98288.86
2022-12-23T08:29:13.672Z,98287.83
2022-12-23T08:31:41.640Z,98286.42
2022-12-23T08:34:15.324Z,98283.14
2022-12-23T08:36:43.369Z,98286.40
2022-12-23T08:39:17.675Z,98278.70
2022-12-23T08:41:52.133Z,98280.90
2022-12-23T08:44:20.120Z,98282.52
2022-12-23T08:46:52.795Z,98277.70
2022-12-23T08:49:21.654Z,98280.26
2022-12-23T08:51:54.524Z,98276.23
2022-12-23T08:54:28.508Z,98265.59
2022-12-23T08:56:56.799Z,98263.73
2022-12-23T08:59:24.872Z,98267.69
2022-12-23T09:01:53.063Z,98264.11
2022-12-23T09:04:26.079Z,98263.96
2022-12-23T09:06:54.134Z,98258.66
2022-12-23T09:09:22.138Z,98253.52
2022-12-23T09:11:50.211Z,98258.70
2022-12-23T09:14:18.421Z,98253.75
2022-12-23T09:16:46.622Z,98249.04
2022-12-23T09:19:14.850Z,98255.58
2022-12-23T09:21:42.795Z,98256.23
2022-12-23T09:24:10.759Z,98250.98
2022-12-23T09:26:39.094Z,98252.54
2022-12-23T09:29:07.068Z,98250.23
2022-12-23T09:31:39.815Z,98243.21
2022-12-23T09:34:13.481Z,98243.58
2022-12-23T09:36:41.688Z,98242.67
2022-12-23T09:39:15.245Z,98237.37
2022-12-23T09:42:12.693Z,98233.06
2022-12-23T09:45:08.081Z,98231.07
2022-12-23T09:47:38.281Z,98236.23
2022-12-23T09:50:48.291Z,98227.30
2022-12-23T09:53:25.360Z,98216.34
2022-12-23T09:56:11.190Z,98210.60
2022-12-23T09:58:50.189Z,98200.93
2022-12-23T10:01:51.964Z,98198.66
2022-12-23T10:04:23.091Z,98199.84
2022-12-23T10:07:38.823Z,98202.61
2022-12-23T10:10:33.508Z,98210.55
2022-12-23T10:13:06.202Z,98201.66
2022-12-23T10:15:47.508Z,98201.34
2022-12-23T10:18:23.071Z,98198.43
2022-12-23T10:21:01.804Z,98195.36
2022-12-23T10:23:44.514Z,98192.58
2022-12-23T10:26:25.607Z,98190.70
2022-12-23T10:29:16.825Z,98187.50
2022-12-23T10:31:59.549Z,98191.31
2022-12-23T10:35:05.166Z,98186.45
2022-12-23T10:37:37.744Z,98179.02
2022-12-23T10:40:24.362Z,98174.89
2022-12-23T10:43:02.462Z,98177.86
2022-12-23T10:45:56.335Z,98173.39
2022-12-23T10:48:56.532Z,98170.33
2022-12-23T10:51:53.706Z,98165.36
2022-12-23T10:54:27.195Z,98161.45
2022-12-23T10:56:55.995Z,98160.45
2022-12-23T10:59:30.212Z,98160.39
2022-12-23T11:02:13.876Z,98154.42
2022-12-23T11:04:44.681Z,98155.81
2022-12-23T11:07:44.277Z,98157.67
2022-12-23T11:10:19.599Z,98154.40
2022-12-23T11:12:53.519Z,98148.96
2022-12-23T11:15:24.276Z,98148.42
2022-12-23T11:18:12.632Z,98154.76
2022-12-23T11:20:43.183Z,98155.59
2022-12-23T11:23:27.119Z,98156.89
2022-12-23T11:26:06.018Z,98161.00
2022-12-23T11:28:38.804Z,98162.41
2022-12-23T11:31:14.720Z,98159.09
2022-12-23T11:34:02.633Z,98164.20
2022-12-23T11:36:33.325Z,98165.83
2022-12-23T11:39:24.173Z,98166.56
2022-12-23T11:42:01.894Z,98157.20
2022-12-23T11:44:31.276Z,98158.59
2022-12-23T11:47:17.731Z,98151.45
2022-12-23T11:49:56.571Z,98142.61
2022-12-23T11:52:31.212Z,98140.79
2022-12-23T11:55:02.420Z,98134.21
2022-12-23T11:57:51.842Z,98134.90
2022-12-23T12:00:21.537Z,98129.13
2022-12-23T12:02:54.671Z,98126.40
2022-12-23T12:05:32.461Z,98127.73
2022-12-23T12:08:04.807Z,98130.17
2022-12-23T12:10:40.605Z,98127.45
2022-12-23T12:13:29.290Z,98135.55
2022-12-23T12:15:57.556Z,98141.16
2022-12-23T12:18:26.939Z,98148.48
2022-12-23T12:21:02.802Z,98147.05
2022-12-23T12:23:40.373Z,98149.67
2022-12-23T12:26:30.375Z,98148.77
2022-12-23T12:29:25.807Z,98149.39
2022-12-23T12:31:59.131Z,98150.14
2022-12-23T12:35:12.334Z,98145.27
2022-12-23T12:37:52.158Z,98150.94
2022-12-23T12:40:42.662Z,98147.79
2022-12-23T12:43:20.759Z,98146.55
2022-12-23T12:46:18.818Z,98144.19
2022-12-23T12:49:06.043Z,98148.47
2022-12-23T12:51:43.051Z,98144.58
2022-12-23T12:54:28.495Z,98150.10
2022-12-23T12:56:59.344Z,98153.20
2022-12-23T12:59:34.780Z,98148.38
2022-12-23T13:02:08.875Z,98146.16
2022-12-23T13:04:56.848Z,98149.45
2022-12-23T13:07:30.861Z,98149.74
2022-12-23T13:10:12.158Z,98147.57
2022-12-23T13:12:48.959Z,98145.09
2022-12-23T13:15:49.241Z,98145.66
2022-12-23T13:18:45.483Z,98144.77
2022-12-23T13:21:51.236Z,98137.79
2022-12-23T13:24:33.080Z,98134.11
2022-12-23T13:27:13.191Z,98133.98
2022-12-23T13:29:58.597Z,98134.16
2022-12-23T13:32:54.685Z,98137.06
2022-12-23T13:36:04.946Z,98130.73
2022-12-23T13:39:05.825Z,98136.73
2022-12-23T13:41:42.695Z,98137.23
2022-12-23T13:44:15.692Z,98135.67
2022-12-23T13:47:09.091Z,98138.95
2022-12-23T13:50:19.398Z,98134.83
2022-12-23T13:53:15.664Z,98145.28
2022-12-23T13:56:00.519Z,98142.11
2022-12-23T13:58:31.456Z,98138.52
2022-12-23T14:01:08.460Z,98137.73
2022-12-23T14:03:40.426Z,98139.46
2022-12-23T14:06:40.376Z,98134.36
2022-12-23T14:09:15.660Z,98133.48
2022-12-23T14:11:45.576Z,98122.95
2022-12-23T14:14:24.070Z,98128.23
2022-12-23T14:17:11.304Z,98132.58
2022-12-23T14:19:59.006Z,98136.48
2022-12-23T14:22:56.173Z,98136.27
2022-12-23T14:25:37.189Z,98141.05
2022-12-23T14:28:29.341Z,98139.27
2022-12-23T14:30:59.609Z,98140.06
2022-12-23T14:33:33.877Z,98141.02
2022-12-23T14:36:21.514Z,98142.09
2022-12-23T14:39:40.259Z,98139.94
2022-12-23T14:42:16.677Z,98140.43
2022-12-23T14:44:50.472Z,98140.17
2022-12-23T14:47:32.278Z,98138.27
2022-12-23T14:50:34.561Z,98141.73
2022-12-23T14:53:23.149Z,98136.14
2022-12-23T14:56:11.335Z,98142.27
2022-12-23T14:58:48.346Z,98146.69
2022-12-23T15:01:51.264Z,98147.69
2022-12-23T15:04:20.949Z,98143.71
2022-12-23T15:06:55.573Z,98147.73
2022-12-23T15:09:42.405Z,98149.48
2022-12-23T19:04:07.849Z,98156.23
2022-12-23T19:06:37.521Z,98161.81
2022-12-23T19:09:07.611Z,98161.42
2022-12-23T19:11:35.780Z,98157.52
2022-12-23T19:14:05.453Z,98160.50
2022-12-23T19:16:33.642Z,98158.47
2022-12-23T19:19:05.248Z,98161.58
2022-12-23T19:21:35.004Z,98168.66
2022-12-23T19:24:05.437Z,98179.45
2022-12-23T19:26:33.642Z,98178.34
2022-12-23T19:29:01.561Z,98180.20
2022-12-23T19:31:31.626Z,98174.41
2022-12-23T19:34:01.886Z,98177.45
2022-12-23T19:36:30.131Z,98175.79
2022-12-23T19:38:59.451Z,98176.84
2022-12-23T19:41:29.260Z,98169.36
2022-12-23T19:43:57.464Z,98174.35
2022-12-23T19:46:25.668Z,98175.73
2022-12-23T19:48:55.161Z,98174.57
2022-12-23T19:51:23.357Z,98176.31
2022-12-23T19:53:53.517Z,98172.27
2022-12-23T19:56:22.658Z,98170.92
2022-12-23T19:58:53.065Z,98174.11
2022-12-23T20:01:25.612Z,98171.71
2022-12-23T20:03:56.873Z,98176.69
2022-12-23T20:06:33.346Z,98180.57
2022-12-23T20:09:06.473Z,98179.19
2022-12-23T20:11:55.427Z,98181.99
2022-12-23T20:14:27.792Z,98180.77
2022-12-23T20:17:00.138Z,98179.85
2022-12-23T20:19:28.431Z,98179.85
2022-12-23T20:21:56.799Z,98182.55
2022-12-23T20:24:25.047Z,98176.08
2022-12-23T20:26:53.080Z,98181.35
2022-12-23T20:29:21.338Z,98177.00
2022-12-23T20:31:52.488Z,98179.35
2022-12-23T20:34:22.168Z,98183.55
2022-12-23T20:36:50.213Z,98186.13
2022-12-23T20:39:20.140Z,98188.63
2022-12-23T20:41:48.320Z,98193.81
2022-12-23T20:47:06.966Z,98191.17
2022-12-23T20:49:37.858Z,98185.00
2022-12-23T20:52:06.115Z,98186.60
2022-12-23T20:54:35.106Z,98184.68
2022-12-23T20:57:05.102Z,98182.58
2022-12-23T20:59:35.027Z,98187.54
2022-12-23T21:02:03.543Z,98192.08
2022-12-23T21:04:34.738Z,98187.59
2022-12-23T21:07:02.719Z,98184.04
2022-12-23T21:09:32.695Z,98178.21
2022-12-23T21:12:00.761Z,98178.52
2022-12-23T21:14:30.492Z,98178.23
2022-12-23T21:16:58.681Z,98182.54
2022-12-23T21:19:28.197Z,98182.39
2022-12-23T21:21:57.874Z,98179.52
2022-12-23T21:24:26.114Z,98177.02
2022-12-23T21:26:57.303Z,98177.69
2022-12-23T21:29:28.182Z,98170.27
2022-12-23T21:31:56.827Z,98159.66
2022-12-23T21:34:25.507Z,98146.05
2022-12-23T21:36:55.613Z,98144.45
2022-12-23T21:39:25.251Z,98148.70
2022-12-23T21:41:53.224Z,98136.41
2022-12-23T21:44:21.503Z,98130.85
2022-12-23T21:46:52.314Z,98130.73
2022-12-23T21:49:21.637Z,98127.81
2022-12-23T21:51:51.927Z,98126.42
2022-12-23T21:54:20.520Z,98131.78
2022-12-23T21:56:48.465Z,98131.97
2022-12-23T21:59:18.494Z,98127.98
2022-12-23T22:01:46.755Z,98124.42
2022-12-23T22:04:18.565Z,98127.89
2022-12-23T22:06:46.545Z,98122.07
2022-12-23T22:09:21.183Z,98116.15
2022-12-23T22:11:49.339Z,98117.35
2022-12-23T22:14:19.860Z,98112.63
2022-12-23T22:16:49.866Z,98110.48
2022-12-23T22:19:19.603Z,98113.27
2022-12-23T22:21:47.787Z,98107.16
2022-12-23T22:24:17.299Z,98104.87
2022-12-23T22:26:45.248Z,98105.88
2022-12-23T22:29:13.485Z,98107.91
2022-12-23T22:31:53.354Z,98103.42
2022-12-23T22:34:22.936Z,98102.04
2022-12-23T22:36:51.626Z,98104.02
2022-12-23T22:39:23.067Z,98108.84
2022-12-23T22:41:52.577Z,98109.95
2022-12-23T22:44:23.710Z,98107.48
2022-12-23T22:46:53.241Z,98105.98
2022-12-23T22:49:22.894Z,98103.52
2022-12-23T22:51:50.843Z,98103.70
2022-12-23T22:54:19.055Z,98102.98
2022-12-23T22:56:49.835Z,98102.13
2022-12-23T22:59:23.188Z,98104.80
2022-12-23T23:01:54.471Z,98108.14
2022-12-23T23:04:24.897Z,98103.27
2022-12-23T23:06:53.708Z,98100.10
2022-12-23T23:09:24.593Z,98096.42
2022-12-23T23:11:52.778Z,98101.53
2022-12-23T23:14:20.821Z,98103.25
2022-12-23T23:16:53.659Z,98107.43
2022-12-23T23:19:22.338Z,98106.36
2022-12-23T23:21:50.974Z,98101.06
2022-12-23T23:24:19.172Z,98106.36
2022-12-23T23:26:47.335Z,98106.49
2022-12-23T23:29:15.289Z,98106.05
2022-12-23T23:31:44.521Z,98100.35
2022-12-23T23:34:16.140Z,98102.28
2022-12-23T23:36:44.508Z,98093.17
2022-12-23T23:39:17.304Z,98094.98
2022-12-23T23:41:45.211Z,98094.60
2022-12-23T23:44:13.497Z,98099.27
2022-12-23T23:46:41.705Z,98097.40
2022-12-23T23:49:12.220Z,98098.23
2022-12-23T23:51:43.149Z,98096.27
2022-12-23T23:54:11.352Z,98087.65
2022-12-23T23:56:39.670Z,98081.16
2022-12-23T23:59:09.703Z,98081.81
